sensor_id;sensor_type;location;lat;lon;timestamp;temperature;humidity
26909;DHT22;14477;51.038;4.588;2023-02-28T00:00:05;3.20;90.40
26909;DHT22;14477;51.038;4.588;2023-02-28T00:02:36;3.20;90.40
26909;DHT22;14477;51.038;4.588;2023-02-28T00:05:03;3.20;90.40
26909;DHT22;14477;51.038;4.588;2023-02-28T00:07:30;3.10;90.50
26909;DHT22;14477;51.038;4.588;2023-02-28T00:09:56;3.20;90.50
26909;DHT22;14477;51.038;4.588;2023-02-28T00:12:22;3.20;90.60
26909;DHT22;14477;51.038;4.588;2023-02-28T00:14:48;3.10;90.50
26909;DHT22;14477;51.038;4.588;2023-02-28T00:17:14;3.10;90.50
26909;DHT22;14477;51.038;4.588;2023-02-28T00:19:39;3.10;90.60
26909;DHT22;14477;51.038;4.588;2023-02-28T00:22:05;3.00;90.60
26909;DHT22;14477;51.038;4.588;2023-02-28T00:24:31;3.00;90.60
26909;DHT22;14477;51.038;4.588;2023-02-28T00:26:57;3.00;90.60
26909;DHT22;14477;51.038;4.588;2023-02-28T00:29:22;3.00;90.70
26909;DHT22;14477;51.038;4.588;2023-02-28T00:31:48;2.90;90.70
26909;DHT22;14477;51.038;4.588;2023-02-28T00:34:14;2.90;90.70
26909;DHT22;14477;51.038;4.588;2023-02-28T00:36:39;2.90;90.70
26909;DHT22;14477;51.038;4.588;2023-02-28T00:39:09;2.90;90.70
26909;DHT22;14477;51.038;4.588;2023-02-28T00:41:35;2.80;90.70
26909;DHT22;14477;51.038;4.588;2023-02-28T00:44:01;2.80;90.70
26909;DHT22;14477;51.038;4.588;2023-02-28T00:46:26;2.80;90.70
26909;DHT22;14477;51.038;4.588;2023-02-28T00:48:52;2.80;90.70
26909;DHT22;14477;51.038;4.588;2023-02-28T00:51:18;2.70;90.70
26909;DHT22;14477;51.038;4.588;2023-02-28T00:53:44;2.70;90.80
26909;DHT22;14477;51.038;4.588;2023-02-28T00:56:09;2.70;90.80
26909;DHT22;14477;51.038;4.588;2023-02-28T00:58:35;2.60;90.80
26909;DHT22;14477;51.038;4.588;2023-02-28T01:01:01;2.60;90.80
26909;DHT22;14477;51.038;4.588;2023-02-28T01:03:27;2.60;90.80
26909;DHT22;14477;51.038;4.588;2023-02-28T01:05:53;2.60;90.80
26909;DHT22;14477;51.038;4.588;2023-02-28T01:08:19;2.50;90.80
26909;DHT22;14477;51.038;4.588;2023-02-28T01:10:45;2.50;90.80
26909;DHT22;14477;51.038;4.588;2023-02-28T01:13:12;2.50;90.80
26909;DHT22;14477;51.038;4.588;2023-02-28T01:15:41;2.50;90.80
26909;DHT22;14477;51.038;4.588;2023-02-28T01:18:08;2.40;90.80
26909;DHT22;14477;51.038;4.588;2023-02-28T01:20:37;2.40;90.80
26909;DHT22;14477;51.038;4.588;2023-02-28T01:23:03;2.40;90.90
26909;DHT22;14477;51.038;4.588;2023-02-28T01:25:28;2.40;90.90
26909;DHT22;14477;51.038;4.588;2023-02-28T01:27:54;2.30;90.90
26909;DHT22;14477;51.038;4.588;2023-02-28T01:30:20;2.30;90.90
26909;DHT22;14477;51.038;4.588;2023-02-28T01:32:46;2.30;90.90
26909;DHT22;14477;51.038;4.588;2023-02-28T01:35:12;2.30;90.90
26909;DHT22;14477;51.038;4.588;2023-02-28T01:37:38;2.20;90.90
26909;DHT22;14477;51.038;4.588;2023-02-28T01:40:04;2.20;91.00
26909;DHT22;14477;51.038;4.588;2023-02-28T01:42:30;2.20;91.00
26909;DHT22;14477;51.038;4.588;2023-02-28T01:47:33;2.10;91.00
26909;DHT22;14477;51.038;4.588;2023-02-28T01:50:02;2.10;91.00
26909;DHT22;14477;51.038;4.588;2023-02-28T01:52:30;2.10;91.10
26909;DHT22;14477;51.038;4.588;2023-02-28T01:54:59;2.00;91.10
26909;DHT22;14477;51.038;4.588;2023-02-28T01:57:32;2.10;91.10
26909;DHT22;14477;51.038;4.588;2023-02-28T02:02:35;2.00;91.20
26909;DHT22;14477;51.038;4.588;2023-02-28T02:05:07;2.00;91.30
26909;DHT22;14477;51.038;4.588;2023-02-28T02:07:39;2.00;91.30
26909;DHT22;14477;51.038;4.588;2023-02-28T02:10:15;2.00;91.40
26909;DHT22;14477;51.038;4.588;2023-02-28T02:13:03;2.00;91.40
26909;DHT22;14477;51.038;4.588;2023-02-28T02:18:29;1.90;91.40
26909;DHT22;14477;51.038;4.588;2023-02-28T02:26:53;1.90;91.40
26909;DHT22;14477;51.038;4.588;2023-02-28T02:33:18;1.90;91.40
26909;DHT22;14477;51.038;4.588;2023-02-28T02:35:27;1.90;91.40
26909;DHT22;14477;51.038;4.588;2023-02-28T02:43:49;1.80;91.50
26909;DHT22;14477;51.038;4.588;2023-02-28T02:46:29;1.70;91.50
26909;DHT22;14477;51.038;4.588;2023-02-28T02:48:58;1.70;91.50
26909;DHT22;14477;51.038;4.588;2023-02-28T02:51:25;1.70;91.60
26909;DHT22;14477;51.038;4.588;2023-02-28T02:54:06;1.70;91.60
26909;DHT22;14477;51.038;4.588;2023-02-28T02:56:36;1.70;91.60
26909;DHT22;14477;51.038;4.588;2023-02-28T02:59:06;1.70;91.60
26909;DHT22;14477;51.038;4.588;2023-02-28T03:01:33;1.70;91.70
26909;DHT22;14477;51.038;4.588;2023-02-28T03:04:07;1.60;91.70
26909;DHT22;14477;51.038;4.588;2023-02-28T03:06:33;1.60;91.70
26909;DHT22;14477;51.038;4.588;2023-02-28T03:09:01;1.60;91.80
26909;DHT22;14477;51.038;4.588;2023-02-28T03:11:27;1.60;91.80
26909;DHT22;14477;51.038;4.588;2023-02-28T03:25:33;1.50;91.80
26909;DHT22;14477;51.038;4.588;2023-02-28T03:28:16;1.50;91.80
26909;DHT22;14477;51.038;4.588;2023-02-28T03:30:52;1.50;91.80
26909;DHT22;14477;51.038;4.588;2023-02-28T03:35:55;1.50;91.90
26909;DHT22;14477;51.038;4.588;2023-02-28T03:38:37;1.40;91.90
26909;DHT22;14477;51.038;4.588;2023-02-28T03:41:21;1.40;91.90
26909;DHT22;14477;51.038;4.588;2023-02-28T03:43:55;1.40;91.90
26909;DHT22;14477;51.038;4.588;2023-02-28T03:46:25;1.40;91.90
26909;DHT22;14477;51.038;4.588;2023-02-28T03:48:56;1.40;92.00
26909;DHT22;14477;51.038;4.588;2023-02-28T03:51:24;1.40;91.90
26909;DHT22;14477;51.038;4.588;2023-02-28T03:54:06;1.40;91.90
26909;DHT22;14477;51.038;4.588;2023-02-28T03:56:38;1.40;91.90
26909;DHT22;14477;51.038;4.588;2023-02-28T03:59:14;1.40;91.90
26909;DHT22;14477;51.038;4.588;2023-02-28T04:01:44;1.30;91.90
26909;DHT22;14477;51.038;4.588;2023-02-28T04:04:11;1.30;91.90
26909;DHT22;14477;51.038;4.588;2023-02-28T04:06:39;1.30;91.90
26909;DHT22;14477;51.038;4.588;2023-02-28T04:09:06;1.30;91.80
26909;DHT22;14477;51.038;4.588;2023-02-28T04:11:36;1.30;91.90
26909;DHT22;14477;51.038;4.588;2023-02-28T04:14:04;1.30;91.90
26909;DHT22;14477;51.038;4.588;2023-02-28T04:16:31;1.20;91.90
26909;DHT22;14477;51.038;4.588;2023-02-28T04:18:57;1.20;91.90
26909;DHT22;14477;51.038;4.588;2023-02-28T04:21:48;1.20;91.90
26909;DHT22;14477;51.038;4.588;2023-02-28T04:24:16;1.20;92.30
26909;DHT22;14477;51.038;4.588;2023-02-28T04:26:47;1.20;92.00
26909;DHT22;14477;51.038;4.588;2023-02-28T04:29:25;1.20;92.00
26909;DHT22;14477;51.038;4.588;2023-02-28T04:31:51;1.20;92.10
26909;DHT22;14477;51.038;4.588;2023-02-28T04:34:19;1.20;92.10
26909;DHT22;14477;51.038;4.588;2023-02-28T04:36:47;1.20;92.20
26909;DHT22;14477;51.038;4.588;2023-02-28T04:39:15;1.20;92.30
26909;DHT22;14477;51.038;4.588;2023-02-28T04:41:44;1.20;92.50
26909;DHT22;14477;51.038;4.588;2023-02-28T04:44:10;1.30;92.70
26909;DHT22;14477;51.038;4.588;2023-02-28T04:46:36;1.30;92.90
26909;DHT22;14477;51.038;4.588;2023-02-28T04:49:02;1.40;93.00
26909;DHT22;14477;51.038;4.588;2023-02-28T04:51:28;1.50;93.20
26909;DHT22;14477;51.038;4.588;2023-02-28T04:53:54;1.60;93.30
26909;DHT22;14477;51.038;4.588;2023-02-28T04:56:21;1.60;93.40
26909;DHT22;14477;51.038;4.588;2023-02-28T04:58:47;1.70;93.50
26909;DHT22;14477;51.038;4.588;2023-02-28T05:01:20;1.90;93.50
26909;DHT22;14477;51.038;4.588;2023-02-28T05:03:46;1.90;93.60
26909;DHT22;14477;51.038;4.588;2023-02-28T05:06:13;2.00;93.60
26909;DHT22;14477;51.038;4.588;2023-02-28T05:08:39;2.10;93.90
26909;DHT22;14477;51.038;4.588;2023-02-28T05:11:14;2.10;93.60
26909;DHT22;14477;51.038;4.588;2023-02-28T05:13:40;2.20;93.60
26909;DHT22;14477;51.038;4.588;2023-02-28T05:16:06;2.30;93.60
26909;DHT22;14477;51.038;4.588;2023-02-28T05:18:32;2.30;93.60
26909;DHT22;14477;51.038;4.588;2023-02-28T05:20:58;2.40;93.60
26909;DHT22;14477;51.038;4.588;2023-02-28T05:23:26;2.40;93.60
26909;DHT22;14477;51.038;4.588;2023-02-28T05:25:53;2.40;93.50
26909;DHT22;14477;51.038;4.588;2023-02-28T05:28:20;2.50;93.60
26909;DHT22;14477;51.038;4.588;2023-02-28T05:30:46;2.50;93.50
26909;DHT22;14477;51.038;4.588;2023-02-28T05:33:12;2.50;93.50
26909;DHT22;14477;51.038;4.588;2023-02-28T05:35:39;2.60;93.60
26909;DHT22;14477;51.038;4.588;2023-02-28T05:38:05;2.60;93.60
26909;DHT22;14477;51.038;4.588;2023-02-28T05:40:31;2.70;93.60
26909;DHT22;14477;51.038;4.588;2023-02-28T05:42:57;2.70;93.60
26909;DHT22;14477;51.038;4.588;2023-02-28T05:45:23;2.70;93.60
26909;DHT22;14477;51.038;4.588;2023-02-28T05:47:49;2.70;93.60
26909;DHT22;14477;51.038;4.588;2023-02-28T05:50:18;2.70;93.60
26909;DHT22;14477;51.038;4.588;2023-02-28T05:52:44;2.70;93.60
26909;DHT22;14477;51.038;4.588;2023-02-28T05:55:09;2.80;93.60
26909;DHT22;14477;51.038;4.588;2023-02-28T05:57:35;2.70;93.60
26909;DHT22;14477;51.038;4.588;2023-02-28T06:00:02;2.80;93.60
26909;DHT22;14477;51.038;4.588;2023-02-28T06:02:28;2.80;93.60
26909;DHT22;14477;51.038;4.588;2023-02-28T06:04:53;2.80;93.70
26909;DHT22;14477;51.038;4.588;2023-02-28T06:07:19;2.80;93.70
26909;DHT22;14477;51.038;4.588;2023-02-28T06:09:45;2.80;93.70
26909;DHT22;14477;51.038;4.588;2023-02-28T06:12:11;2.80;93.70
26909;DHT22;14477;51.038;4.588;2023-02-28T06:14:37;2.80;93.70
26909;DHT22;14477;51.038;4.588;2023-02-28T06:17:03;2.90;93.70
26909;DHT22;14477;51.038;4.588;2023-02-28T06:19:29;2.80;93.70
26909;DHT22;14477;51.038;4.588;2023-02-28T06:21:56;2.80;93.70
26909;DHT22;14477;51.038;4.588;2023-02-28T06:24:24;2.90;93.70
26909;DHT22;14477;51.038;4.588;2023-02-28T06:26:50;2.90;93.70
26909;DHT22;14477;51.038;4.588;2023-02-28T06:29:16;2.90;93.70
26909;DHT22;14477;51.038;4.588;2023-02-28T06:31:44;2.90;93.80
26909;DHT22;14477;51.038;4.588;2023-02-28T06:34:10;2.90;93.80
26909;DHT22;14477;51.038;4.588;2023-02-28T06:36:38;2.90;93.80
26909;DHT22;14477;51.038;4.588;2023-02-28T06:39:04;2.90;93.80
26909;DHT22;14477;51.038;4.588;2023-02-28T06:41:30;3.00;93.90
26909;DHT22;14477;51.038;4.588;2023-02-28T06:43:56;3.00;93.90
26909;DHT22;14477;51.038;4.588;2023-02-28T06:46:23;3.00;93.90
26909;DHT22;14477;51.038;4.588;2023-02-28T06:48:49;3.00;93.90
26909;DHT22;14477;51.038;4.588;2023-02-28T06:51:18;3.10;94.00
26909;DHT22;14477;51.038;4.588;2023-02-28T06:53:45;3.10;94.00
26909;DHT22;14477;51.038;4.588;2023-02-28T06:56:14;3.10;94.00
26909;DHT22;14477;51.038;4.588;2023-02-28T06:58:40;3.20;94.10
26909;DHT22;14477;51.038;4.588;2023-02-28T07:01:07;3.20;94.10
26909;DHT22;14477;51.038;4.588;2023-02-28T07:03:35;3.20;94.00
26909;DHT22;14477;51.038;4.588;2023-02-28T07:06:01;3.30;94.10
26909;DHT22;14477;51.038;4.588;2023-02-28T07:08:28;3.30;94.10
26909;DHT22;14477;51.038;4.588;2023-02-28T07:10:55;3.30;94.20
26909;DHT22;14477;51.038;4.588;2023-02-28T07:13:22;3.30;94.20
26909;DHT22;14477;51.038;4.588;2023-02-28T07:15:59;3.40;94.40
26909;DHT22;14477;51.038;4.588;2023-02-28T07:18:26;3.40;94.40
26909;DHT22;14477;51.038;4.588;2023-02-28T07:20:52;3.50;94.70
26909;DHT22;14477;51.038;4.588;2023-02-28T07:23:18;3.70;95.00
26909;DHT22;14477;51.038;4.588;2023-02-28T07:25:44;3.80;95.20
26909;DHT22;14477;51.038;4.588;2023-02-28T07:28:12;4.00;95.30
26909;DHT22;14477;51.038;4.588;2023-02-28T07:30:38;4.20;95.30
26909;DHT22;14477;51.038;4.588;2023-02-28T07:33:04;4.30;95.20
26909;DHT22;14477;51.038;4.588;2023-02-28T07:35:31;4.40;95.00
26909;DHT22;14477;51.038;4.588;2023-02-28T07:38:00;4.50;95.10
26909;DHT22;14477;51.038;4.588;2023-02-28T07:40:26;4.70;95.10
26909;DHT22;14477;51.038;4.588;2023-02-28T07:42:52;4.80;95.40
26909;DHT22;14477;51.038;4.588;2023-02-28T07:45:18;5.00;95.80
26909;DHT22;14477;51.038;4.588;2023-02-28T07:47:45;5.20;96.20
26909;DHT22;14477;51.038;4.588;2023-02-28T07:50:13;5.50;97.00
26909;DHT22;14477;51.038;4.588;2023-02-28T07:52:40;5.90;97.60
26909;DHT22;14477;51.038;4.588;2023-02-28T07:55:08;6.30;98.80
26909;DHT22;14477;51.038;4.588;2023-02-28T07:57:35;6.90;99.60
26909;DHT22;14477;51.038;4.588;2023-02-28T08:00:03;7.40;99.70
26909;DHT22;14477;51.038;4.588;2023-02-28T08:02:29;7.90;99.10
26909;DHT22;14477;51.038;4.588;2023-02-28T08:04:55;8.40;99.30
26909;DHT22;14477;51.038;4.588;2023-02-28T08:07:21;8.80;99.80
26909;DHT22;14477;51.038;4.588;2023-02-28T08:09:47;9.30;99.80
26909;DHT22;14477;51.038;4.588;2023-02-28T08:12:13;9.80;99.80
26909;DHT22;14477;51.038;4.588;2023-02-28T08:14:38;10.30;99.90
26909;DHT22;14477;51.038;4.588;2023-02-28T08:17:05;10.80;99.50
26909;DHT22;14477;51.038;4.588;2023-02-28T08:19:31;11.20;99.10
26909;DHT22;14477;51.038;4.588;2023-02-28T08:21:57;11.60;98.20
26909;DHT22;14477;51.038;4.588;2023-02-28T08:24:23;12.00;97.60
26909;DHT22;14477;51.038;4.588;2023-02-28T08:26:49;12.30;96.80
26909;DHT22;14477;51.038;4.588;2023-02-28T08:29:15;12.50;95.80
26909;DHT22;14477;51.038;4.588;2023-02-28T08:31:42;12.70;95.80
26909;DHT22;14477;51.038;4.588;2023-02-28T08:34:13;12.80;95.20
26909;DHT22;14477;51.038;4.588;2023-02-28T08:36:40;12.80;93.60
26909;DHT22;14477;51.038;4.588;2023-02-28T08:39:06;12.80;94.00
26909;DHT22;14477;51.038;4.588;2023-02-28T08:41:33;12.70;93.20
26909;DHT22;14477;51.038;4.588;2023-02-28T08:43:59;12.60;93.00
26909;DHT22;14477;51.038;4.588;2023-02-28T08:46:25;12.40;93.30
26909;DHT22;14477;51.038;4.588;2023-02-28T08:48:55;12.20;93.20
26909;DHT22;14477;51.038;4.588;2023-02-28T08:51:24;12.10;92.70
26909;DHT22;14477;51.038;4.588;2023-02-28T08:53:55;11.90;93.20
26909;DHT22;14477;51.038;4.588;2023-02-28T08:56:21;11.80;93.60
26909;DHT22;14477;51.038;4.588;2023-02-28T08:58:48;11.70;93.30
26909;DHT22;14477;51.038;4.588;2023-02-28T09:01:20;11.60;91.90
26909;DHT22;14477;51.038;4.588;2023-02-28T09:03:47;11.40;91.90
26909;DHT22;14477;51.038;4.588;2023-02-28T09:06:15;11.20;92.10
26909;DHT22;14477;51.038;4.588;2023-02-28T09:08:41;11.00;92.70
26909;DHT22;14477;51.038;4.588;2023-02-28T09:11:08;11.00;94.20
26909;DHT22;14477;51.038;4.588;2023-02-28T09:13:34;11.10;95.60
26909;DHT22;14477;51.038;4.588;2023-02-28T09:16:02;11.40;96.50
26909;DHT22;14477;51.038;4.588;2023-02-28T09:18:28;11.70;96.30
26909;DHT22;14477;51.038;4.588;2023-02-28T09:20:54;12.00;96.80
26909;DHT22;14477;51.038;4.588;2023-02-28T09:23:20;12.40;96.70
26909;DHT22;14477;51.038;4.588;2023-02-28T09:25:51;12.60;95.80
26909;DHT22;14477;51.038;4.588;2023-02-28T09:28:18;12.90;95.00
26909;DHT22;14477;51.038;4.588;2023-02-28T09:30:45;13.20;93.50
26909;DHT22;14477;51.038;4.588;2023-02-28T09:33:12;13.50;94.30
26909;DHT22;14477;51.038;4.588;2023-02-28T09:35:39;13.70;95.20
26909;DHT22;14477;51.038;4.588;2023-02-28T09:38:05;14.00;93.80
26909;DHT22;14477;51.038;4.588;2023-02-28T09:40:37;14.20;94.80
26909;DHT22;14477;51.038;4.588;2023-02-28T09:43:05;14.50;91.90
26909;DHT22;14477;51.038;4.588;2023-02-28T09:45:36;14.60;93.50
26909;DHT22;14477;51.038;4.588;2023-02-28T09:48:16;14.80;92.20
26909;DHT22;14477;51.038;4.588;2023-02-28T09:50:49;15.10;92.10
26909;DHT22;14477;51.038;4.588;2023-02-28T09:53:25;15.30;93.10
26909;DHT22;14477;51.038;4.588;2023-02-28T09:56:01;15.50;92.50
26909;DHT22;14477;51.038;4.588;2023-02-28T09:58:41;15.80;92.70
26909;DHT22;14477;51.038;4.588;2023-02-28T10:03:42;16.30;94.00
26909;DHT22;14477;51.038;4.588;2023-02-28T10:11:14;16.70;90.30
26909;DHT22;14477;51.038;4.588;2023-02-28T10:16:46;16.90;89.40
26909;DHT22;14477;51.038;4.588;2023-02-28T10:19:26;17.10;91.10
26909;DHT22;14477;51.038;4.588;2023-02-28T10:24:44;17.20;83.60
26909;DHT22;14477;51.038;4.588;2023-02-28T10:27:16;17.20;83.30
26909;DHT22;14477;51.038;4.588;2023-02-28T10:29:44;17.10;86.20
26909;DHT22;14477;51.038;4.588;2023-02-28T10:32:13;17.10;84.70
26909;DHT22;14477;51.038;4.588;2023-02-28T10:34:40;17.20;86.00
26909;DHT22;14477;51.038;4.588;2023-02-28T10:37:06;17.30;87.60
26909;DHT22;14477;51.038;4.588;2023-02-28T10:39:42;17.40;81.50
26909;DHT22;14477;51.038;4.588;2023-02-28T10:44:46;17.60;82.20
26909;DHT22;14477;51.038;4.588;2023-02-28T10:47:19;17.60;76.00
26909;DHT22;14477;51.038;4.588;2023-02-28T10:49:49;17.60;77.00
26909;DHT22;14477;51.038;4.588;2023-02-28T10:52:37;17.70;81.30
26909;DHT22;14477;51.038;4.588;2023-02-28T10:55:25;17.90;81.10
26909;DHT22;14477;51.038;4.588;2023-02-28T10:57:52;18.00;79.80
26909;DHT22;14477;51.038;4.588;2023-02-28T11:00:23;18.10;83.70
26909;DHT22;14477;51.038;4.588;2023-02-28T11:02:51;18.20;81.60
26909;DHT22;14477;51.038;4.588;2023-02-28T11:05:32;18.30;79.40
26909;DHT22;14477;51.038;4.588;2023-02-28T11:08:11;18.40;80.00
26909;DHT22;14477;51.038;4.588;2023-02-28T11:10:38;18.50;79.20
26909;DHT22;14477;51.038;4.588;2023-02-28T11:13:05;18.70;83.10
26909;DHT22;14477;51.038;4.588;2023-02-28T11:15:33;18.70;73.70
26909;DHT22;14477;51.038;4.588;2023-02-28T11:20:27;18.70;78.10
26909;DHT22;14477;51.038;4.588;2023-02-28T11:22:54;18.70;77.10
26909;DHT22;14477;51.038;4.588;2023-02-28T11:25:27;18.70;79.40
26909;DHT22;14477;51.038;4.588;2023-02-28T11:27:59;18.80;80.30
26909;DHT22;14477;51.038;4.588;2023-02-28T11:30:38;19.00;80.10
26909;DHT22;14477;51.038;4.588;2023-02-28T11:36:29;19.40;72.00
26909;DHT22;14477;51.038;4.588;2023-02-28T11:38:58;19.60;72.90
26909;DHT22;14477;51.038;4.588;2023-02-28T11:55:14;20.40;78.20
26909;DHT22;14477;51.038;4.588;2023-02-28T11:58:01;20.50;75.80
26909;DHT22;14477;51.038;4.588;2023-02-28T12:00:49;20.50;77.60
26909;DHT22;14477;51.038;4.588;2023-02-28T12:06:09;20.50;72.90
26909;DHT22;14477;51.038;4.588;2023-02-28T12:11:52;20.50;68.40
26909;DHT22;14477;51.038;4.588;2023-02-28T12:17:50;20.80;66.50
26909;DHT22;14477;51.038;4.588;2023-02-28T12:20:33;20.90;64.90
26909;DHT22;14477;51.038;4.588;2023-02-28T12:25:43;20.80;72.50
26909;DHT22;14477;51.038;4.588;2023-02-28T12:28:17;20.80;67.10
26909;DHT22;14477;51.038;4.588;2023-02-28T12:31:33;20.70;64.80
26909;DHT22;14477;51.038;4.588;2023-02-28T12:33:44;20.60;65.10
26909;DHT22;14477;51.038;4.588;2023-02-28T12:36:14;20.40;67.20
26909;DHT22;14477;51.038;4.588;2023-02-28T12:38:48;20.30;68.20
26909;DHT22;14477;51.038;4.588;2023-02-28T12:41:54;20.30;68.90
26909;DHT22;14477;51.038;4.588;2023-02-28T12:44:35;20.30;65.10
26909;DHT22;14477;51.038;4.588;2023-02-28T12:47:05;20.30;67.80
26909;DHT22;14477;51.038;4.588;2023-02-28T12:49:44;20.20;68.60
26909;DHT22;14477;51.038;4.588;2023-02-28T12:52:13;20.10;62.80
26909;DHT22;14477;51.038;4.588;2023-02-28T12:57:41;19.90;64.60
26909;DHT22;14477;51.038;4.588;2023-02-28T13:00:19;19.90;65.90
26909;DHT22;14477;51.038;4.588;2023-02-28T13:11:41;19.80;64.50
26909;DHT22;14477;51.038;4.588;2023-02-28T13:19:31;19.40;60.90
26909;DHT22;14477;51.038;4.588;2023-02-28T13:21:58;19.20;63.90
26909;DHT22;14477;51.038;4.588;2023-02-28T13:29:39;19.10;63.30
26909;DHT22;14477;51.038;4.588;2023-02-28T13:34:33;19.10;66.00
26909;DHT22;14477;51.038;4.588;2023-02-28T13:47:48;18.40;58.50
26909;DHT22;14477;51.038;4.588;2023-02-28T13:50:36;18.20;56.30
26909;DHT22;14477;51.038;4.588;2023-02-28T14:01:40;18.00;58.50
26909;DHT22;14477;51.038;4.588;2023-02-28T14:06:55;17.80;57.50
26909;DHT22;14477;51.038;4.588;2023-02-28T14:09:40;17.70;59.80
26909;DHT22;14477;51.038;4.588;2023-02-28T14:18:01;17.60;57.20
26909;DHT22;14477;51.038;4.588;2023-02-28T14:20:31;17.40;59.60
26909;DHT22;14477;51.038;4.588;2023-02-28T14:23:20;17.30;59.90
26909;DHT22;14477;51.038;4.588;2023-02-28T14:31:32;17.20;58.40
26909;DHT22;14477;51.038;4.588;2023-02-28T14:36:49;17.00;55.00
26909;DHT22;14477;51.038;4.588;2023-02-28T14:39:21;16.80;59.00
26909;DHT22;14477;51.038;4.588;2023-02-28T14:41:47;16.70;56.90
26909;DHT22;14477;51.038;4.588;2023-02-28T14:44:24;16.60;58.40
26909;DHT22;14477;51.038;4.588;2023-02-28T14:46:55;16.50;58.70
26909;DHT22;14477;51.038;4.588;2023-02-28T14:49:48;16.30;57.40
26909;DHT22;14477;51.038;4.588;2023-02-28T14:52:28;16.10;56.90
26909;DHT22;14477;51.038;4.588;2023-02-28T14:55:03;15.90;55.70
26909;DHT22;14477;51.038;4.588;2023-02-28T14:57:32;15.70;55.80
26909;DHT22;14477;51.038;4.588;2023-02-28T15:02:38;15.40;57.20
26909;DHT22;14477;51.038;4.588;2023-02-28T15:07:46;15.20;59.10
26909;DHT22;14477;51.038;4.588;2023-02-28T15:10:25;15.10;59.40
26909;DHT22;14477;51.038;4.588;2023-02-28T15:13:00;15.00;58.40
26909;DHT22;14477;51.038;4.588;2023-02-28T15:21:08;14.90;61.20
26909;DHT22;14477;51.038;4.588;2023-02-28T15:23:37;14.90;59.20
26909;DHT22;14477;51.038;4.588;2023-02-28T15:26:05;14.70;58.60
26909;DHT22;14477;51.038;4.588;2023-02-28T15:28:31;14.50;58.70
26909;DHT22;14477;51.038;4.588;2023-02-28T15:31:03;14.40;58.30
26909;DHT22;14477;51.038;4.588;2023-02-28T15:33:54;14.20;57.70
26909;DHT22;14477;51.038;4.588;2023-02-28T15:36:20;14.10;57.30
26909;DHT22;14477;51.038;4.588;2023-02-28T15:38:51;14.00;59.30
26909;DHT22;14477;51.038;4.588;2023-02-28T15:41:37;13.90;59.40
26909;DHT22;14477;51.038;4.588;2023-02-28T15:44:26;13.80;58.60
26909;DHT22;14477;51.038;4.588;2023-02-28T15:49:47;13.50;58.80
26909;DHT22;14477;51.038;4.588;2023-02-28T15:52:20;13.40;60.40
26909;DHT22;14477;51.038;4.588;2023-02-28T15:54:47;13.30;59.60
26909;DHT22;14477;51.038;4.588;2023-02-28T15:57:21;13.20;60.50
26909;DHT22;14477;51.038;4.588;2023-02-28T15:59:56;13.10;60.00
26909;DHT22;14477;51.038;4.588;2023-02-28T16:02:35;13.00;60.90
26909;DHT22;14477;51.038;4.588;2023-02-28T16:07:37;12.80;60.20
26909;DHT22;14477;51.038;4.588;2023-02-28T16:10:04;12.60;61.20
26909;DHT22;14477;51.038;4.588;2023-02-28T16:12:33;12.50;60.80
26909;DHT22;14477;51.038;4.588;2023-02-28T16:15:02;12.40;60.10
26909;DHT22;14477;51.038;4.588;2023-02-28T16:17:34;12.20;59.60
26909;DHT22;14477;51.038;4.588;2023-02-28T16:20:11;12.10;60.80
26909;DHT22;14477;51.038;4.588;2023-02-28T16:22:37;12.00;59.80
26909;DHT22;14477;51.038;4.588;2023-02-28T16:25:03;11.90;61.10
26909;DHT22;14477;51.038;4.588;2023-02-28T16:27:36;11.80;60.90
26909;DHT22;14477;51.038;4.588;2023-02-28T16:30:04;11.70;60.60
26909;DHT22;14477;51.038;4.588;2023-02-28T16:32:31;11.60;61.30
26909;DHT22;14477;51.038;4.588;2023-02-28T16:34:57;11.60;61.60
26909;DHT22;14477;51.038;4.588;2023-02-28T16:37:23;11.50;61.80
26909;DHT22;14477;51.038;4.588;2023-02-28T16:39:49;11.50;61.80
26909;DHT22;14477;51.038;4.588;2023-02-28T16:42:25;11.40;62.00
26909;DHT22;14477;51.038;4.588;2023-02-28T16:44:52;11.40;61.30
26909;DHT22;14477;51.038;4.588;2023-02-28T16:47:18;11.30;62.20
26909;DHT22;14477;51.038;4.588;2023-02-28T16:49:44;11.20;62.10
26909;DHT22;14477;51.038;4.588;2023-02-28T16:52:10;11.10;62.20
26909;DHT22;14477;51.038;4.588;2023-02-28T16:54:38;11.00;62.10
26909;DHT22;14477;51.038;4.588;2023-02-28T16:57:05;10.90;62.20
26909;DHT22;14477;51.038;4.588;2023-02-28T16:59:31;10.80;62.30
26909;DHT22;14477;51.038;4.588;2023-02-28T17:01:58;10.80;62.30
26909;DHT22;14477;51.038;4.588;2023-02-28T17:04:25;10.70;62.30
26909;DHT22;14477;51.038;4.588;2023-02-28T17:06:51;10.70;62.50
26909;DHT22;14477;51.038;4.588;2023-02-28T17:09:20;10.50;62.20
26909;DHT22;14477;51.038;4.588;2023-02-28T17:11:46;10.50;62.00
26909;DHT22;14477;51.038;4.588;2023-02-28T17:14:12;10.40;62.50
26909;DHT22;14477;51.038;4.588;2023-02-28T17:16:39;10.30;62.50
26909;DHT22;14477;51.038;4.588;2023-02-28T17:19:09;10.20;62.20
26909;DHT22;14477;51.038;4.588;2023-02-28T17:21:36;10.20;62.30
26909;DHT22;14477;51.038;4.588;2023-02-28T17:24:03;10.10;62.70
26909;DHT22;14477;51.038;4.588;2023-02-28T17:26:29;10.00;62.80
26909;DHT22;14477;51.038;4.588;2023-02-28T17:28:55;9.90;63.00
26909;DHT22;14477;51.038;4.588;2023-02-28T17:31:26;9.90;63.00
26909;DHT22;14477;51.038;4.588;2023-02-28T17:33:53;9.80;63.10
26909;DHT22;14477;51.038;4.588;2023-02-28T17:36:26;9.80;63.50
26909;DHT22;14477;51.038;4.588;2023-02-28T17:38:53;9.80;62.80
26909;DHT22;14477;51.038;4.588;2023-02-28T17:41:20;9.70;63.50
26909;DHT22;14477;51.038;4.588;2023-02-28T17:43:46;9.60;63.70
26909;DHT22;14477;51.038;4.588;2023-02-28T17:46:21;9.60;63.90
26909;DHT22;14477;51.038;4.588;2023-02-28T17:48:49;9.60;63.30
26909;DHT22;14477;51.038;4.588;2023-02-28T17:51:17;9.50;63.90
26909;DHT22;14477;51.038;4.588;2023-02-28T17:53:43;9.40;63.90
26909;DHT22;14477;51.038;4.588;2023-02-28T17:56:14;9.40;64.20
26909;DHT22;14477;51.038;4.588;2023-02-28T17:58:40;9.30;63.80
26909;DHT22;14477;51.038;4.588;2023-02-28T18:01:06;9.20;64.40
26909;DHT22;14477;51.038;4.588;2023-02-28T18:03:33;9.20;64.40
26909;DHT22;14477;51.038;4.588;2023-02-28T18:05:59;9.20;64.60
26909;DHT22;14477;51.038;4.588;2023-02-28T18:08:25;9.10;64.70
26909;DHT22;14477;51.038;4.588;2023-02-28T18:10:51;9.10;64.70
26909;DHT22;14477;51.038;4.588;2023-02-28T18:13:17;9.00;64.90
26909;DHT22;14477;51.038;4.588;2023-02-28T18:15:43;9.00;64.90
26909;DHT22;14477;51.038;4.588;2023-02-28T18:18:09;8.90;64.90
26909;DHT22;14477;51.038;4.588;2023-02-28T18:20:35;8.90;65.00
26909;DHT22;14477;51.038;4.588;2023-02-28T18:23:01;8.70;64.90
26909;DHT22;14477;51.038;4.588;2023-02-28T18:25:27;8.70;65.10
26909;DHT22;14477;51.038;4.588;2023-02-28T18:27:53;8.70;65.10
26909;DHT22;14477;51.038;4.588;2023-02-28T18:30:27;8.60;65.20
26909;DHT22;14477;51.038;4.588;2023-02-28T18:32:55;8.50;65.30
26909;DHT22;14477;51.038;4.588;2023-02-28T18:35:22;8.50;65.70